Weather at Kallander Field

Public forecast

Using degrees Fahrenheit for public forecast. Weather courtesy of forecast.io.

Closest aviation weather report (METAR) to Kallander Field

Closest report is Laurence G Hanscom Field, 13.8 nm (25.6 km) NE. Retrieved 2020/09/26 00:51 UTC (46 minutes ago):

KBED 260051Z 08004KT 10SM CLR 16/13 A3012 RMK AO2 SLP211 T01560133

Closest aviation forecast (TAF) to Kallander Field

Closest forecast is Laurence G Hanscom Field, 13.8 nm (25.6 km) NE. Retrieved 2020-09-26 00:42 UTC (55 minutes ago):

TAF KBED 252339Z 2600/2624 14007KT P6SM SCT250 FM260900 00000KT 5SM BR BKN015 FM261200 20003KT 6SM BR BKN025 FM261300 20003KT P6SM FEW030 BKN250